sensor_id;sensor_type;location;lat;lon;timestamp;P1;durP1;ratioP1;P2;durP2;ratioP2
26407;SDS011;14583;43.604;1.364;2022-09-13T00:00:53;8.88;;;3.80;;
26407;SDS011;14583;43.604;1.364;2022-09-13T00:03:19;10.65;;;3.95;;
26407;SDS011;14583;43.604;1.364;2022-09-13T00:05:45;8.52;;;4.30;;
26407;SDS011;14583;43.604;1.364;2022-09-13T00:08:11;7.20;;;3.90;;
26407;SDS011;14583;43.604;1.364;2022-09-13T00:10:38;7.75;;;3.90;;
26407;SDS011;14583;43.604;1.364;2022-09-13T00:13:06;10.48;;;3.60;;
26407;SDS011;14583;43.604;1.364;2022-09-13T00:15:33;8.88;;;4.07;;
26407;SDS011;14583;43.604;1.364;2022-09-13T00:17:59;8.38;;;3.30;;
26407;SDS011;14583;43.604;1.364;2022-09-13T00:20:25;7.63;;;3.80;;
26407;SDS011;14583;43.604;1.364;2022-09-13T00:22:51;9.10;;;4.10;;
26407;SDS011;14583;43.604;1.364;2022-09-13T00:25:17;13.20;;;4.30;;
26407;SDS011;14583;43.604;1.364;2022-09-13T00:27:44;6.15;;;3.60;;
26407;SDS011;14583;43.604;1.364;2022-09-13T00:30:10;7.65;;;3.90;;
26407;SDS011;14583;43.604;1.364;2022-09-13T00:32:37;7.53;;;3.85;;
26407;SDS011;14583;43.604;1.364;2022-09-13T00:35:03;11.02;;;3.75;;
26407;SDS011;14583;43.604;1.364;2022-09-13T00:37:30;5.35;;;3.40;;
26407;SDS011;14583;43.604;1.364;2022-09-13T00:40:00;7.80;;;3.63;;
26407;SDS011;14583;43.604;1.364;2022-09-13T00:42:27;8.43;;;3.50;;
26407;SDS011;14583;43.604;1.364;2022-09-13T00:45:00;9.05;;;3.58;;
26407;SDS011;14583;43.604;1.364;2022-09-13T00:47:43;7.60;;;3.45;;
26407;SDS011;14583;43.604;1.364;2022-09-13T00:50:30;10.63;;;4.10;;
26407;SDS011;14583;43.604;1.364;2022-09-13T00:53:12;11.48;;;3.88;;
26407;SDS011;14583;43.604;1.364;2022-09-13T00:55:49;8.48;;;3.67;;
26407;SDS011;14583;43.604;1.364;2022-09-13T00:58:40;10.88;;;3.50;;
26407;SDS011;14583;43.604;1.364;2022-09-13T01:01:08;13.82;;;3.60;;
26407;SDS011;14583;43.604;1.364;2022-09-13T01:03:36;12.82;;;3.85;;
26407;SDS011;14583;43.604;1.364;2022-09-13T01:06:07;6.10;;;3.42;;
26407;SDS011;14583;43.604;1.364;2022-09-13T01:08:41;7.80;;;3.42;;
26407;SDS011;14583;43.604;1.364;2022-09-13T01:11:10;8.93;;;3.08;;
26407;SDS011;14583;43.604;1.364;2022-09-13T01:13:43;5.43;;;3.25;;
26407;SDS011;14583;43.604;1.364;2022-09-13T01:16:10;4.78;;;2.90;;
26407;SDS011;14583;43.604;1.364;2022-09-13T01:18:36;9.02;;;3.70;;
26407;SDS011;14583;43.604;1.364;2022-09-13T01:21:07;9.77;;;4.05;;
26407;SDS011;14583;43.604;1.364;2022-09-13T01:24:12;9.18;;;3.45;;
26407;SDS011;14583;43.604;1.364;2022-09-13T01:27:00;8.55;;;2.85;;
26407;SDS011;14583;43.604;1.364;2022-09-13T01:32:09;8.93;;;3.80;;
26407;SDS011;14583;43.604;1.364;2022-09-13T01:34:41;5.65;;;3.40;;
26407;SDS011;14583;43.604;1.364;2022-09-13T01:48:58;9.93;;;3.42;;
26407;SDS011;14583;43.604;1.364;2022-09-13T01:54:32;7.80;;;4.32;;
26407;SDS011;14583;43.604;1.364;2022-09-13T01:57:12;8.35;;;3.15;;
26407;SDS011;14583;43.604;1.364;2022-09-13T02:00:03;7.03;;;2.80;;
26407;SDS011;14583;43.604;1.364;2022-09-13T02:02:42;7.00;;;3.50;;
26407;SDS011;14583;43.604;1.364;2022-09-13T02:05:18;5.07;;;2.80;;
26407;SDS011;14583;43.604;1.364;2022-09-13T02:08:05;8.52;;;3.50;;
26407;SDS011;14583;43.604;1.364;2022-09-13T02:10:37;8.13;;;3.30;;
26407;SDS011;14583;43.604;1.364;2022-09-13T02:13:12;6.32;;;2.83;;
26407;SDS011;14583;43.604;1.364;2022-09-13T02:15:46;6.63;;;3.13;;
26407;SDS011;14583;43.604;1.364;2022-09-13T02:18:19;6.68;;;3.15;;
26407;SDS011;14583;43.604;1.364;2022-09-13T02:20:52;5.10;;;3.20;;
26407;SDS011;14583;43.604;1.364;2022-09-13T02:23:34;7.15;;;3.10;;
26407;SDS011;14583;43.604;1.364;2022-09-13T02:26:05;7.38;;;3.38;;
26407;SDS011;14583;43.604;1.364;2022-09-13T02:28:37;6.30;;;3.28;;
26407;SDS011;14583;43.604;1.364;2022-09-13T02:31:08;8.30;;;3.50;;
26407;SDS011;14583;43.604;1.364;2022-09-13T02:33:36;7.10;;;3.30;;
26407;SDS011;14583;43.604;1.364;2022-09-13T02:36:08;7.88;;;3.58;;
26407;SDS011;14583;43.604;1.364;2022-09-13T02:52:09;6.88;;;3.40;;
26407;SDS011;14583;43.604;1.364;2022-09-13T02:57:38;7.30;;;3.00;;
26407;SDS011;14583;43.604;1.364;2022-09-13T03:00:13;6.97;;;3.30;;
26407;SDS011;14583;43.604;1.364;2022-09-13T03:02:38;6.03;;;2.97;;
26407;SDS011;14583;43.604;1.364;2022-09-13T03:05:06;5.47;;;3.70;;
26407;SDS011;14583;43.604;1.364;2022-09-13T03:07:32;7.65;;;3.28;;
26407;SDS011;14583;43.604;1.364;2022-09-13T03:09:59;6.95;;;2.90;;
26407;SDS011;14583;43.604;1.364;2022-09-13T03:15:44;3.90;;;3.05;;
26407;SDS011;14583;43.604;1.364;2022-09-13T03:34:41;7.97;;;3.60;;
26407;SDS011;14583;43.604;1.364;2022-09-13T03:38:30;7.07;;;3.83;;
26407;SDS011;14583;43.604;1.364;2022-09-13T03:45:49;12.88;;;4.35;;
26407;SDS011;14583;43.604;1.364;2022-09-13T03:48:18;6.70;;;3.78;;
26407;SDS011;14583;43.604;1.364;2022-09-13T03:50:45;9.15;;;3.92;;
26407;SDS011;14583;43.604;1.364;2022-09-13T03:53:12;7.03;;;3.92;;
26407;SDS011;14583;43.604;1.364;2022-09-13T03:55:43;6.37;;;4.07;;
26407;SDS011;14583;43.604;1.364;2022-09-13T03:58:12;8.32;;;3.80;;
26407;SDS011;14583;43.604;1.364;2022-09-13T04:00:40;7.82;;;3.75;;
26407;SDS011;14583;43.604;1.364;2022-09-13T04:03:06;9.38;;;3.75;;
26407;SDS011;14583;43.604;1.364;2022-09-13T04:05:32;6.70;;;3.10;;
26407;SDS011;14583;43.604;1.364;2022-09-13T04:08:02;7.65;;;3.63;;
26407;SDS011;14583;43.604;1.364;2022-09-13T04:10:32;8.30;;;3.85;;
26407;SDS011;14583;43.604;1.364;2022-09-13T04:13:02;11.00;;;4.05;;
26407;SDS011;14583;43.604;1.364;2022-09-13T04:15:28;6.28;;;3.67;;
26407;SDS011;14583;43.604;1.364;2022-09-13T04:17:57;8.10;;;3.75;;
26407;SDS011;14583;43.604;1.364;2022-09-13T04:20:24;9.60;;;3.58;;
26407;SDS011;14583;43.604;1.364;2022-09-13T04:22:51;5.28;;;3.40;;
26407;SDS011;14583;43.604;1.364;2022-09-13T04:25:18;8.65;;;3.78;;
26407;SDS011;14583;43.604;1.364;2022-09-13T04:27:44;10.15;;;3.20;;
26407;SDS011;14583;43.604;1.364;2022-09-13T04:30:10;8.38;;;3.83;;
26407;SDS011;14583;43.604;1.364;2022-09-13T04:32:37;11.35;;;3.75;;
26407;SDS011;14583;43.604;1.364;2022-09-13T04:35:02;9.90;;;3.60;;
26407;SDS011;14583;43.604;1.364;2022-09-13T04:37:28;11.02;;;3.60;;
26407;SDS011;14583;43.604;1.364;2022-09-13T04:39:54;7.80;;;3.63;;
26407;SDS011;14583;43.604;1.364;2022-09-13T04:42:19;11.40;;;3.88;;
26407;SDS011;14583;43.604;1.364;2022-09-13T04:44:45;10.43;;;3.33;;
26407;SDS011;14583;43.604;1.364;2022-09-13T04:47:13;9.00;;;3.40;;
26407;SDS011;14583;43.604;1.364;2022-09-13T04:49:38;11.32;;;3.92;;
26407;SDS011;14583;43.604;1.364;2022-09-13T04:52:04;9.18;;;3.88;;
26407;SDS011;14583;43.604;1.364;2022-09-13T04:54:29;8.52;;;4.25;;
26407;SDS011;14583;43.604;1.364;2022-09-13T04:56:55;8.93;;;4.13;;
26407;SDS011;14583;43.604;1.364;2022-09-13T04:59:21;8.93;;;3.58;;
26407;SDS011;14583;43.604;1.364;2022-09-13T05:01:46;9.55;;;2.90;;
26407;SDS011;14583;43.604;1.364;2022-09-13T05:04:12;6.95;;;3.50;;
26407;SDS011;14583;43.604;1.364;2022-09-13T05:06:37;7.88;;;3.53;;
26407;SDS011;14583;43.604;1.364;2022-09-13T05:09:03;11.75;;;3.60;;
26407;SDS011;14583;43.604;1.364;2022-09-13T05:11:29;10.60;;;3.58;;
26407;SDS011;14583;43.604;1.364;2022-09-13T05:13:56;10.07;;;3.83;;
26407;SDS011;14583;43.604;1.364;2022-09-13T05:16:24;14.18;;;4.82;;
26407;SDS011;14583;43.604;1.364;2022-09-13T05:18:52;9.50;;;3.60;;
26407;SDS011;14583;43.604;1.364;2022-09-13T05:21:19;10.52;;;3.65;;
26407;SDS011;14583;43.604;1.364;2022-09-13T05:23:49;11.93;;;4.05;;
26407;SDS011;14583;43.604;1.364;2022-09-13T05:26:15;9.68;;;3.88;;
26407;SDS011;14583;43.604;1.364;2022-09-13T05:28:41;6.55;;;3.20;;
26407;SDS011;14583;43.604;1.364;2022-09-13T05:31:18;9.00;;;3.40;;
26407;SDS011;14583;43.604;1.364;2022-09-13T05:33:53;14.02;;;3.90;;
26407;SDS011;14583;43.604;1.364;2022-09-13T05:36:21;13.73;;;3.30;;
26407;SDS011;14583;43.604;1.364;2022-09-13T05:38:47;9.52;;;3.65;;
26407;SDS011;14583;43.604;1.364;2022-09-13T05:41:12;11.55;;;3.72;;
26407;SDS011;14583;43.604;1.364;2022-09-13T05:43:38;12.40;;;3.40;;
26407;SDS011;14583;43.604;1.364;2022-09-13T05:46:08;7.95;;;3.00;;
26407;SDS011;14583;43.604;1.364;2022-09-13T05:48:37;11.45;;;3.60;;
26407;SDS011;14583;43.604;1.364;2022-09-13T05:51:13;10.40;;;3.58;;
26407;SDS011;14583;43.604;1.364;2022-09-13T05:53:41;10.48;;;3.28;;
26407;SDS011;14583;43.604;1.364;2022-09-13T05:56:09;12.50;;;3.25;;
26407;SDS011;14583;43.604;1.364;2022-09-13T05:58:40;12.50;;;3.33;;
26407;SDS011;14583;43.604;1.364;2022-09-13T06:01:08;10.55;;;3.97;;
26407;SDS011;14583;43.604;1.364;2022-09-13T06:03:34;6.55;;;2.85;;
26407;SDS011;14583;43.604;1.364;2022-09-13T06:06:03;11.45;;;3.75;;
26407;SDS011;14583;43.604;1.364;2022-09-13T06:08:29;9.07;;;3.53;;
26407;SDS011;14583;43.604;1.364;2022-09-13T06:11:00;7.13;;;3.35;;
26407;SDS011;14583;43.604;1.364;2022-09-13T06:13:30;9.07;;;3.38;;
26407;SDS011;14583;43.604;1.364;2022-09-13T06:15:57;10.20;;;3.30;;
26407;SDS011;14583;43.604;1.364;2022-09-13T06:18:24;6.78;;;3.20;;
26407;SDS011;14583;43.604;1.364;2022-09-13T06:20:50;10.18;;;3.60;;
26407;SDS011;14583;43.604;1.364;2022-09-13T06:23:22;7.00;;;3.25;;
26407;SDS011;14583;43.604;1.364;2022-09-13T06:25:49;11.90;;;3.45;;
26407;SDS011;14583;43.604;1.364;2022-09-13T06:28:14;15.43;;;3.35;;
26407;SDS011;14583;43.604;1.364;2022-09-13T06:30:40;12.07;;;3.63;;
26407;SDS011;14583;43.604;1.364;2022-09-13T06:33:06;11.23;;;3.70;;
26407;SDS011;14583;43.604;1.364;2022-09-13T06:35:31;14.07;;;3.33;;
26407;SDS011;14583;43.604;1.364;2022-09-13T06:37:57;10.13;;;3.20;;
26407;SDS011;14583;43.604;1.364;2022-09-13T06:40:23;11.05;;;3.22;;
26407;SDS011;14583;43.604;1.364;2022-09-13T06:42:49;20.50;;;3.55;;
26407;SDS011;14583;43.604;1.364;2022-09-13T06:45:15;7.80;;;3.00;;
26407;SDS011;14583;43.604;1.364;2022-09-13T06:47:42;11.27;;;3.17;;
26407;SDS011;14583;43.604;1.364;2022-09-13T06:50:07;8.98;;;2.88;;
26407;SDS011;14583;43.604;1.364;2022-09-13T06:52:33;14.43;;;3.00;;
26407;SDS011;14583;43.604;1.364;2022-09-13T06:54:59;16.33;;;3.35;;
26407;SDS011;14583;43.604;1.364;2022-09-13T06:57:25;9.27;;;3.65;;
26407;SDS011;14583;43.604;1.364;2022-09-13T06:59:53;11.55;;;3.25;;
26407;SDS011;14583;43.604;1.364;2022-09-13T07:02:19;10.00;;;2.80;;
26407;SDS011;14583;43.604;1.364;2022-09-13T07:04:45;8.43;;;3.00;;
26407;SDS011;14583;43.604;1.364;2022-09-13T07:07:10;20.48;;;4.07;;
26407;SDS011;14583;43.604;1.364;2022-09-13T07:09:36;7.97;;;3.00;;
26407;SDS011;14583;43.604;1.364;2022-09-13T07:12:03;11.57;;;3.60;;
26407;SDS011;14583;43.604;1.364;2022-09-13T07:14:29;10.10;;;2.83;;
26407;SDS011;14583;43.604;1.364;2022-09-13T07:16:55;9.85;;;2.90;;
26407;SDS011;14583;43.604;1.364;2022-09-13T07:19:22;11.10;;;3.10;;
26407;SDS011;14583;43.604;1.364;2022-09-13T07:21:50;10.05;;;3.70;;
26407;SDS011;14583;43.604;1.364;2022-09-13T07:24:16;9.75;;;2.55;;
26407;SDS011;14583;43.604;1.364;2022-09-13T07:26:43;12.82;;;3.28;;
26407;SDS011;14583;43.604;1.364;2022-09-13T07:29:11;13.43;;;3.10;;
26407;SDS011;14583;43.604;1.364;2022-09-13T07:31:48;10.40;;;2.88;;
26407;SDS011;14583;43.604;1.364;2022-09-13T07:34:16;8.27;;;2.58;;
26407;SDS011;14583;43.604;1.364;2022-09-13T07:36:44;11.50;;;3.17;;
26407;SDS011;14583;43.604;1.364;2022-09-13T07:39:11;10.02;;;2.92;;
26407;SDS011;14583;43.604;1.364;2022-09-13T07:41:37;10.35;;;2.63;;
26407;SDS011;14583;43.604;1.364;2022-09-13T07:44:03;10.15;;;2.85;;
26407;SDS011;14583;43.604;1.364;2022-09-13T07:46:31;13.57;;;3.65;;
26407;SDS011;14583;43.604;1.364;2022-09-13T07:49:00;10.43;;;3.05;;
26407;SDS011;14583;43.604;1.364;2022-09-13T07:51:30;8.82;;;2.85;;
26407;SDS011;14583;43.604;1.364;2022-09-13T07:54:01;16.60;;;3.00;;
26407;SDS011;14583;43.604;1.364;2022-09-13T07:56:30;10.57;;;2.90;;
26407;SDS011;14583;43.604;1.364;2022-09-13T07:58:57;17.27;;;3.08;;
26407;SDS011;14583;43.604;1.364;2022-09-13T08:03:56;14.23;;;2.80;;
26407;SDS011;14583;43.604;1.364;2022-09-13T08:06:24;9.65;;;2.67;;
26407;SDS011;14583;43.604;1.364;2022-09-13T08:08:51;12.23;;;2.80;;
26407;SDS011;14583;43.604;1.364;2022-09-13T08:11:27;12.30;;;2.72;;
26407;SDS011;14583;43.604;1.364;2022-09-13T08:13:58;18.92;;;3.20;;
26407;SDS011;14583;43.604;1.364;2022-09-13T08:16:25;17.45;;;3.28;;
26407;SDS011;14583;43.604;1.364;2022-09-13T08:18:54;7.72;;;2.78;;
26407;SDS011;14583;43.604;1.364;2022-09-13T08:21:21;8.77;;;2.60;;
26407;SDS011;14583;43.604;1.364;2022-09-13T08:23:48;9.93;;;3.58;;
26407;SDS011;14583;43.604;1.364;2022-09-13T08:26:14;11.30;;;2.63;;
26407;SDS011;14583;43.604;1.364;2022-09-13T08:28:41;9.57;;;3.00;;
26407;SDS011;14583;43.604;1.364;2022-09-13T08:31:10;8.60;;;2.70;;
26407;SDS011;14583;43.604;1.364;2022-09-13T08:33:41;12.63;;;2.92;;
26407;SDS011;14583;43.604;1.364;2022-09-13T08:36:08;10.07;;;2.95;;
26407;SDS011;14583;43.604;1.364;2022-09-13T08:38:34;9.18;;;3.28;;
26407;SDS011;14583;43.604;1.364;2022-09-13T08:41:03;9.93;;;2.97;;
26407;SDS011;14583;43.604;1.364;2022-09-13T08:46:25;11.32;;;3.22;;
26407;SDS011;14583;43.604;1.364;2022-09-13T08:48:55;12.50;;;2.92;;
26407;SDS011;14583;43.604;1.364;2022-09-13T08:53:57;14.30;;;3.13;;
26407;SDS011;14583;43.604;1.364;2022-09-13T08:56:40;9.45;;;3.20;;
26407;SDS011;14583;43.604;1.364;2022-09-13T09:02:08;8.50;;;3.08;;
26407;SDS011;14583;43.604;1.364;2022-09-13T09:04:54;8.90;;;2.95;;
26407;SDS011;14583;43.604;1.364;2022-09-13T09:07:29;9.50;;;2.67;;
26407;SDS011;14583;43.604;1.364;2022-09-13T09:09:59;9.57;;;3.28;;
26407;SDS011;14583;43.604;1.364;2022-09-13T09:12:49;10.23;;;3.00;;
26407;SDS011;14583;43.604;1.364;2022-09-13T09:15:46;18.25;;;3.35;;
26407;SDS011;14583;43.604;1.364;2022-09-13T09:18:20;12.50;;;3.15;;
26407;SDS011;14583;43.604;1.364;2022-09-13T09:20:49;19.85;;;4.10;;
26407;SDS011;14583;43.604;1.364;2022-09-13T09:25:54;10.95;;;3.15;;
26407;SDS011;14583;43.604;1.364;2022-09-13T09:28:24;12.27;;;3.28;;
26407;SDS011;14583;43.604;1.364;2022-09-13T09:30:59;11.10;;;3.40;;
26407;SDS011;14583;43.604;1.364;2022-09-13T09:33:50;9.15;;;3.50;;
26407;SDS011;14583;43.604;1.364;2022-09-13T09:36:39;13.05;;;2.97;;
26407;SDS011;14583;43.604;1.364;2022-09-13T09:39:14;16.20;;;3.60;;
26407;SDS011;14583;43.604;1.364;2022-09-13T09:41:40;16.95;;;3.42;;
26407;SDS011;14583;43.604;1.364;2022-09-13T09:46:58;13.85;;;3.60;;
26407;SDS011;14583;43.604;1.364;2022-09-13T09:49:36;8.55;;;2.60;;
26407;SDS011;14583;43.604;1.364;2022-09-13T09:55:21;14.57;;;3.20;;
26407;SDS011;14583;43.604;1.364;2022-09-13T09:57:59;8.85;;;3.05;;
26407;SDS011;14583;43.604;1.364;2022-09-13T10:00:29;7.72;;;2.78;;
26407;SDS011;14583;43.604;1.364;2022-09-13T10:03:05;13.45;;;3.85;;
26407;SDS011;14583;43.604;1.364;2022-09-13T10:05:41;10.05;;;3.30;;
26407;SDS011;14583;43.604;1.364;2022-09-13T10:08:10;13.77;;;4.47;;
26407;SDS011;14583;43.604;1.364;2022-09-13T10:10:55;9.25;;;3.13;;
26407;SDS011;14583;43.604;1.364;2022-09-13T10:13:23;9.85;;;3.45;;
26407;SDS011;14583;43.604;1.364;2022-09-13T10:18:19;13.80;;;3.20;;
26407;SDS011;14583;43.604;1.364;2022-09-13T10:23:48;11.02;;;3.35;;
26407;SDS011;14583;43.604;1.364;2022-09-13T10:26:16;13.52;;;4.13;;
26407;SDS011;14583;43.604;1.364;2022-09-13T10:28:55;18.02;;;4.35;;
26407;SDS011;14583;43.604;1.364;2022-09-13T10:31:25;10.10;;;2.95;;
26407;SDS011;14583;43.604;1.364;2022-09-13T10:33:57;10.13;;;2.70;;
26407;SDS011;14583;43.604;1.364;2022-09-13T10:36:29;18.77;;;3.70;;
26407;SDS011;14583;43.604;1.364;2022-09-13T10:39:02;12.82;;;3.35;;
26407;SDS011;14583;43.604;1.364;2022-09-13T10:44:03;12.57;;;3.00;;
26407;SDS011;14583;43.604;1.364;2022-09-13T10:46:32;17.55;;;3.90;;
26407;SDS011;14583;43.604;1.364;2022-09-13T10:49:00;10.68;;;3.00;;
26407;SDS011;14583;43.604;1.364;2022-09-13T10:54:08;12.13;;;3.03;;
26407;SDS011;14583;43.604;1.364;2022-09-13T10:56:45;15.73;;;4.70;;
26407;SDS011;14583;43.604;1.364;2022-09-13T10:59:19;8.43;;;3.17;;
26407;SDS011;14583;43.604;1.364;2022-09-13T11:12:52;10.20;;;3.25;;
26407;SDS011;14583;43.604;1.364;2022-09-13T11:23:29;7.80;;;2.35;;
26407;SDS011;14583;43.604;1.364;2022-09-13T11:31:41;12.07;;;3.15;;
26407;SDS011;14583;43.604;1.364;2022-09-13T11:34:27;8.73;;;2.35;;
26407;SDS011;14583;43.604;1.364;2022-09-13T11:37:28;16.48;;;2.85;;
26407;SDS011;14583;43.604;1.364;2022-09-13T11:43:24;16.73;;;2.63;;
26407;SDS011;14583;43.604;1.364;2022-09-13T11:56:51;9.90;;;2.70;;
26407;SDS011;14583;43.604;1.364;2022-09-13T12:02:01;11.43;;;2.63;;
26407;SDS011;14583;43.604;1.364;2022-09-13T12:04:37;9.07;;;2.90;;
26407;SDS011;14583;43.604;1.364;2022-09-13T12:07:18;12.23;;;3.60;;
26407;SDS011;14583;43.604;1.364;2022-09-13T12:12:44;13.93;;;2.92;;
26407;SDS011;14583;43.604;1.364;2022-09-13T12:15:31;15.50;;;3.97;;
26407;SDS011;14583;43.604;1.364;2022-09-13T12:18:15;13.32;;;3.30;;
26407;SDS011;14583;43.604;1.364;2022-09-13T12:21:04;16.60;;;3.35;;
26407;SDS011;14583;43.604;1.364;2022-09-13T12:23:34;15.95;;;3.42;;
26407;SDS011;14583;43.604;1.364;2022-09-13T12:28:47;11.45;;;2.65;;
26407;SDS011;14583;43.604;1.364;2022-09-13T12:31:22;8.88;;;2.58;;
26407;SDS011;14583;43.604;1.364;2022-09-13T12:33:53;12.23;;;3.28;;
26407;SDS011;14583;43.604;1.364;2022-09-13T13:00:12;10.05;;;2.58;;
26407;SDS011;14583;43.604;1.364;2022-09-13T13:05:46;10.15;;;2.58;;
26407;SDS011;14583;43.604;1.364;2022-09-13T13:08:20;11.05;;;3.38;;
26407;SDS011;14583;43.604;1.364;2022-09-13T13:13:33;10.05;;;2.95;;
26407;SDS011;14583;43.604;1.364;2022-09-13T13:16:20;11.93;;;2.65;;
26407;SDS011;14583;43.604;1.364;2022-09-13T13:18:58;10.88;;;2.72;;
26407;SDS011;14583;43.604;1.364;2022-09-13T13:21:27;14.65;;;2.40;;
26407;SDS011;14583;43.604;1.364;2022-09-13T13:26:55;8.27;;;2.30;;
26407;SDS011;14583;43.604;1.364;2022-09-13T13:49:48;9.77;;;2.30;;
26407;SDS011;14583;43.604;1.364;2022-09-13T13:57:26;9.18;;;2.30;;
26407;SDS011;14583;43.604;1.364;2022-09-13T14:00:35;12.35;;;2.92;;
26407;SDS011;14583;43.604;1.364;2022-09-13T14:21:33;8.32;;;2.45;;
26407;SDS011;14583;43.604;1.364;2022-09-13T14:26:51;7.25;;;2.10;;
26407;SDS011;14583;43.604;1.364;2022-09-13T14:29:21;12.55;;;2.63;;
26407;SDS011;14583;43.604;1.364;2022-09-13T14:31:53;6.20;;;2.63;;
26407;SDS011;14583;43.604;1.364;2022-09-13T14:34:27;6.65;;;2.33;;
26407;SDS011;14583;43.604;1.364;2022-09-13T14:37:00;10.57;;;2.63;;
26407;SDS011;14583;43.604;1.364;2022-09-13T14:39:28;8.88;;;2.55;;
26407;SDS011;14583;43.604;1.364;2022-09-13T14:41:58;14.68;;;2.88;;
26407;SDS011;14583;43.604;1.364;2022-09-13T14:44:43;13.32;;;2.88;;
26407;SDS011;14583;43.604;1.364;2022-09-13T14:49:57;11.32;;;2.17;;
26407;SDS011;14583;43.604;1.364;2022-09-13T14:52:29;11.10;;;2.85;;
26407;SDS011;14583;43.604;1.364;2022-09-13T14:55:00;9.37;;;2.13;;
26407;SDS011;14583;43.604;1.364;2022-09-13T14:57:30;11.95;;;2.38;;
26407;SDS011;14583;43.604;1.364;2022-09-13T15:00:20;10.27;;;2.75;;
26407;SDS011;14583;43.604;1.364;2022-09-13T15:02:56;15.38;;;2.83;;
26407;SDS011;14583;43.604;1.364;2022-09-13T15:05:30;9.88;;;2.60;;
26407;SDS011;14583;43.604;1.364;2022-09-13T15:07:58;11.90;;;2.72;;
26407;SDS011;14583;43.604;1.364;2022-09-13T15:10:28;13.57;;;2.97;;
26407;SDS011;14583;43.604;1.364;2022-09-13T15:18:05;9.60;;;2.88;;
26407;SDS011;14583;43.604;1.364;2022-09-13T15:23:20;11.55;;;3.40;;
26407;SDS011;14583;43.604;1.364;2022-09-13T15:25:54;8.00;;;2.63;;
26407;SDS011;14583;43.604;1.364;2022-09-13T15:29:12;8.45;;;2.95;;
26407;SDS011;14583;43.604;1.364;2022-09-13T15:31:07;10.10;;;2.47;;
26407;SDS011;14583;43.604;1.364;2022-09-13T15:33:33;10.25;;;2.30;;
26407;SDS011;14583;43.604;1.364;2022-09-13T15:36:12;10.35;;;2.63;;
26407;SDS011;14583;43.604;1.364;2022-09-13T15:41:34;12.90;;;3.20;;
26407;SDS011;14583;43.604;1.364;2022-09-13T15:44:03;13.98;;;2.92;;
26407;SDS011;14583;43.604;1.364;2022-09-13T15:46:30;10.27;;;2.90;;
26407;SDS011;14583;43.604;1.364;2022-09-13T15:49:03;12.48;;;2.92;;
26407;SDS011;14583;43.604;1.364;2022-09-13T15:51:32;12.10;;;4.70;;
26407;SDS011;14583;43.604;1.364;2022-09-13T15:53:59;12.73;;;4.53;;
26407;SDS011;14583;43.604;1.364;2022-09-13T15:56:34;12.00;;;3.15;;
26407;SDS011;14583;43.604;1.364;2022-09-13T15:59:03;11.13;;;3.10;;
26407;SDS011;14583;43.604;1.364;2022-09-13T16:01:30;9.10;;;2.60;;
26407;SDS011;14583;43.604;1.364;2022-09-13T16:03:55;9.45;;;3.33;;
26407;SDS011;14583;43.604;1.364;2022-09-13T16:06:21;14.88;;;2.95;;
26407;SDS011;14583;43.604;1.364;2022-09-13T16:08:47;7.38;;;2.65;;
26407;SDS011;14583;43.604;1.364;2022-09-13T16:11:12;13.50;;;3.25;;
26407;SDS011;14583;43.604;1.364;2022-09-13T16:13:38;13.20;;;2.80;;
26407;SDS011;14583;43.604;1.364;2022-09-13T16:16:04;11.75;;;2.85;;
26407;SDS011;14583;43.604;1.364;2022-09-13T16:18:30;12.80;;;3.03;;
26407;SDS011;14583;43.604;1.364;2022-09-13T16:20:56;13.98;;;3.80;;
26407;SDS011;14583;43.604;1.364;2022-09-13T16:23:21;10.35;;;2.95;;
26407;SDS011;14583;43.604;1.364;2022-09-13T16:25:49;13.55;;;2.72;;
26407;SDS011;14583;43.604;1.364;2022-09-13T16:28:18;13.35;;;3.20;;
26407;SDS011;14583;43.604;1.364;2022-09-13T16:30:45;13.50;;;3.35;;
26407;SDS011;14583;43.604;1.364;2022-09-13T16:33:11;20.52;;;3.90;;
26407;SDS011;14583;43.604;1.364;2022-09-13T16:35:37;14.95;;;3.60;;
26407;SDS011;14583;43.604;1.364;2022-09-13T16:38:03;14.38;;;3.72;;
26407;SDS011;14583;43.604;1.364;2022-09-13T16:40:28;13.27;;;3.00;;
26407;SDS011;14583;43.604;1.364;2022-09-13T16:42:54;15.35;;;3.25;;
26407;SDS011;14583;43.604;1.364;2022-09-13T16:45:20;9.73;;;3.40;;
26407;SDS011;14583;43.604;1.364;2022-09-13T16:47:45;12.70;;;3.30;;
26407;SDS011;14583;43.604;1.364;2022-09-13T16:50:11;12.50;;;3.47;;
26407;SDS011;14583;43.604;1.364;2022-09-13T16:52:37;12.10;;;3.47;;
26407;SDS011;14583;43.604;1.364;2022-09-13T16:55:03;14.35;;;3.60;;
26407;SDS011;14583;43.604;1.364;2022-09-13T16:57:30;12.50;;;3.45;;
26407;SDS011;14583;43.604;1.364;2022-09-13T16:59:56;11.45;;;3.33;;
26407;SDS011;14583;43.604;1.364;2022-09-13T17:02:23;13.20;;;3.88;;
26407;SDS011;14583;43.604;1.364;2022-09-13T17:04:49;16.80;;;3.90;;
26407;SDS011;14583;43.604;1.364;2022-09-13T17:07:15;11.48;;;3.58;;
26407;SDS011;14583;43.604;1.364;2022-09-13T17:09:41;12.05;;;3.72;;
26407;SDS011;14583;43.604;1.364;2022-09-13T17:12:07;12.27;;;4.03;;
26407;SDS011;14583;43.604;1.364;2022-09-13T17:14:35;13.02;;;4.30;;
26407;SDS011;14583;43.604;1.364;2022-09-13T17:17:00;11.82;;;4.03;;
26407;SDS011;14583;43.604;1.364;2022-09-13T17:19:30;12.57;;;4.07;;
26407;SDS011;14583;43.604;1.364;2022-09-13T17:22:01;14.40;;;3.67;;
26407;SDS011;14583;43.604;1.364;2022-09-13T17:24:29;13.25;;;4.35;;
26407;SDS011;14583;43.604;1.364;2022-09-13T17:26:55;11.05;;;3.70;;
26407;SDS011;14583;43.604;1.364;2022-09-13T17:29:22;15.82;;;4.47;;
26407;SDS011;14583;43.604;1.364;2022-09-13T17:31:49;11.73;;;4.07;;
26407;SDS011;14583;43.604;1.364;2022-09-13T17:34:16;18.80;;;3.92;;
26407;SDS011;14583;43.604;1.364;2022-09-13T17:36:41;18.65;;;4.03;;
26407;SDS011;14583;43.604;1.364;2022-09-13T17:39:07;20.10;;;4.22;;
26407;SDS011;14583;43.604;1.364;2022-09-13T17:41:34;10.68;;;3.55;;
26407;SDS011;14583;43.604;1.364;2022-09-13T17:44:00;16.63;;;4.38;;
26407;SDS011;14583;43.604;1.364;2022-09-13T17:46:26;18.35;;;5.93;;
26407;SDS011;14583;43.604;1.364;2022-09-13T17:48:54;19.15;;;5.00;;
26407;SDS011;14583;43.604;1.364;2022-09-13T17:51:22;11.27;;;4.80;;
26407;SDS011;14583;43.604;1.364;2022-09-13T17:53:50;16.65;;;5.90;;
26407;SDS011;14583;43.604;1.364;2022-09-13T17:56:25;16.05;;;5.53;;
26407;SDS011;14583;43.604;1.364;2022-09-13T17:58:54;14.88;;;5.25;;
26407;SDS011;14583;43.604;1.364;2022-09-13T18:01:21;11.52;;;4.22;;
26407;SDS011;14583;43.604;1.364;2022-09-13T18:03:47;18.33;;;4.70;;
26407;SDS011;14583;43.604;1.364;2022-09-13T18:06:13;15.18;;;5.55;;
26407;SDS011;14583;43.604;1.364;2022-09-13T18:08:39;11.90;;;4.43;;
26407;SDS011;14583;43.604;1.364;2022-09-13T18:13:32;11.75;;;4.13;;
26407;SDS011;14583;43.604;1.364;2022-09-13T18:15:59;15.52;;;4.38;;
26407;SDS011;14583;43.604;1.364;2022-09-13T18:18:27;12.45;;;4.43;;
26407;SDS011;14583;43.604;1.364;2022-09-13T18:20:52;12.85;;;4.03;;
26407;SDS011;14583;43.604;1.364;2022-09-13T18:23:18;16.25;;;4.97;;
26407;SDS011;14583;43.604;1.364;2022-09-13T18:25:54;15.82;;;4.47;;
26407;SDS011;14583;43.604;1.364;2022-09-13T18:28:20;13.45;;;4.95;;
26407;SDS011;14583;43.604;1.364;2022-09-13T18:30:56;13.38;;;3.75;;
26407;SDS011;14583;43.604;1.364;2022-09-13T18:33:23;12.93;;;4.93;;
26407;SDS011;14583;43.604;1.364;2022-09-13T18:38:38;11.60;;;3.88;;
26407;SDS011;14583;43.604;1.364;2022-09-13T18:41:20;15.48;;;4.20;;
26407;SDS011;14583;43.604;1.364;2022-09-13T18:43:48;13.30;;;4.38;;
26407;SDS011;14583;43.604;1.364;2022-09-13T18:46:16;11.40;;;4.80;;
26407;SDS011;14583;43.604;1.364;2022-09-13T18:48:44;13.90;;;4.60;;
26407;SDS011;14583;43.604;1.364;2022-09-13T18:51:12;17.00;;;4.63;;
26407;SDS011;14583;43.604;1.364;2022-09-13T18:53:40;15.68;;;4.13;;